createdAt,value
2018-04-29T00:00:19.347Z,12.30
2018-04-29T00:02:45.470Z,12.30
2018-04-29T00:05:11.557Z,12.30
2018-04-29T00:07:37.649Z,12.30
2018-04-29T00:10:03.808Z,12.30
2018-04-29T00:12:29.873Z,12.40
2018-04-29T00:14:55.939Z,12.30
2018-04-29T00:17:22.149Z,12.30
2018-04-29T00:19:48.548Z,12.30
2018-04-29T00:22:14.634Z,12.30
2018-04-29T00:24:40.735Z,12.30
2018-04-29T00:27:06.826Z,12.30
2018-04-29T00:29:32.955Z,12.20
2018-04-29T00:31:59.079Z,12.20
2018-04-29T00:34:25.953Z,12.00
2018-04-29T00:36:52.179Z,12.00
2018-04-29T00:39:18.306Z,11.90
2018-04-29T00:41:45.144Z,11.80
2018-04-29T00:44:11.235Z,11.80
2018-04-29T00:46:37.370Z,11.80
2018-04-29T00:49:03.448Z,11.80
2018-04-29T00:51:41.939Z,11.80
2018-04-29T00:54:08.090Z,11.80
2018-04-29T00:56:34.188Z,11.80
2018-04-29T00:59:01.019Z,11.90
2018-04-29T01:01:27.077Z,11.90
2018-04-29T01:03:53.956Z,12.00
2018-04-29T01:06:20.081Z,12.00
2018-04-29T01:08:46.933Z,12.10
2018-04-29T01:11:13.064Z,12.00
2018-04-29T01:13:39.916Z,12.10
2018-04-29T01:16:05.955Z,12.00
2018-04-29T01:18:32.792Z,12.10
2018-04-29T01:20:58.888Z,12.00
2018-04-29T01:23:25.029Z,12.10
2018-04-29T01:25:51.222Z,12.10
2018-04-29T01:28:18.078Z,12.20
2018-04-29T01:30:44.221Z,12.10
2018-04-29T01:33:10.328Z,12.20
2018-04-29T01:35:36.432Z,12.20
2018-04-29T01:38:02.562Z,12.10
2018-04-29T01:40:28.601Z,12.10
2018-04-29T01:42:54.769Z,12.10
2018-04-29T01:45:21.011Z,12.10
2018-04-29T01:47:47.839Z,12.10
2018-04-29T01:50:13.929Z,12.10
2018-04-29T01:52:39.997Z,12.10
2018-04-29T01:55:06.080Z,12.10
2018-04-29T01:57:32.206Z,12.10
2018-04-29T01:59:58.317Z,12.10
2018-04-29T02:02:25.155Z,12.00
2018-04-29T02:04:51.817Z,12.00
2018-04-29T02:07:17.907Z,12.00
2018-04-29T02:09:44.028Z,12.00
2018-04-29T02:12:10.193Z,12.00
2018-04-29T02:14:36.263Z,12.00
2018-04-29T02:17:02.329Z,12.00
2018-04-29T02:19:28.358Z,12.00
2018-04-29T02:21:54.414Z,12.00
2018-04-29T02:24:20.647Z,11.90
2018-04-29T02:26:46.731Z,11.90
2018-04-29T02:29:12.909Z,11.90
2018-04-29T02:31:39.801Z,11.80
2018-04-29T02:34:05.904Z,11.80
2018-04-29T02:36:32.727Z,11.80
2018-04-29T02:38:59.828Z,11.80
2018-04-29T02:41:25.940Z,11.80
2018-04-29T02:43:52.062Z,11.80
2018-04-29T02:46:18.157Z,11.70
2018-04-29T02:48:44.274Z,11.60
2018-04-29T02:51:10.363Z,11.50
2018-04-29T02:53:36.477Z,11.40
2018-04-29T02:56:02.549Z,11.40
2018-04-29T02:58:28.619Z,11.20
2018-04-29T03:00:54.802Z,11.20
2018-04-29T03:03:20.945Z,11.10
2018-04-29T03:05:47.135Z,11.00
2018-04-29T03:08:14.039Z,10.90
2018-04-29T03:10:40.076Z,10.90
2018-04-29T03:13:06.153Z,10.80
2018-04-29T03:15:32.225Z,10.70
2018-04-29T03:17:58.306Z,10.70
2018-04-29T03:20:24.468Z,10.60
2018-04-29T03:22:50.744Z,10.50
2018-04-29T03:25:16.821Z,10.50
2018-04-29T03:27:42.932Z,10.40
2018-04-29T03:30:10.165Z,10.30
2018-04-29T03:32:36.731Z,10.20
2018-04-29T03:35:03.108Z,10.10
2018-04-29T03:37:29.239Z,10.10
2018-04-29T03:39:55.509Z,10.10
2018-04-29T03:42:21.705Z,10.00
2018-04-29T03:44:48.167Z,10.10
2018-04-29T03:47:14.259Z,10.10
2018-04-29T03:49:40.313Z,10.10
2018-04-29T03:52:06.460Z,10.10
2018-04-29T03:54:32.560Z,10.20
2018-04-29T03:57:11.167Z,10.20
2018-04-29T03:59:49.477Z,10.20
2018-04-29T04:02:27.741Z,10.20
2018-04-29T04:04:53.824Z,10.30
2018-04-29T04:07:19.940Z,10.30
2018-04-29T04:09:46.075Z,10.40
2018-04-29T04:12:12.162Z,10.40
2018-04-29T04:14:38.529Z,10.50
2018-04-29T04:17:04.654Z,10.50
2018-04-29T04:19:30.741Z,10.60
2018-04-29T04:21:57.824Z,10.70
2018-04-29T04:24:24.015Z,10.70
2018-04-29T04:26:50.181Z,10.80
2018-04-29T04:29:17.307Z,10.90
2018-04-29T04:31:43.389Z,11.00
2018-04-29T04:34:10.243Z,11.10
2018-04-29T04:36:36.310Z,11.00
2018-04-29T04:39:02.423Z,11.10
2018-04-29T04:41:29.268Z,11.30
2018-04-29T04:43:55.439Z,11.30
2018-04-29T04:46:23.891Z,11.50
2018-04-29T04:48:50.226Z,11.50
2018-04-29T04:51:16.290Z,11.60
2018-04-29T04:53:42.368Z,11.70
2018-04-29T04:56:08.523Z,11.90
2018-04-29T04:58:34.783Z,11.90
2018-04-29T05:01:00.897Z,12.00
2018-04-29T05:03:26.975Z,12.20
2018-04-29T05:05:53.201Z,12.30
2018-04-29T05:08:19.257Z,12.40
2018-04-29T05:10:45.389Z,12.40
2018-04-29T05:13:11.479Z,12.50
2018-04-29T05:15:37.575Z,12.60
2018-04-29T05:18:03.661Z,12.60
2018-04-29T05:20:29.849Z,12.70
2018-04-29T05:22:55.901Z,12.70
2018-04-29T05:25:22.000Z,12.70
2018-04-29T05:27:48.124Z,12.80
2018-04-29T05:30:14.173Z,12.90
2018-04-29T05:32:40.261Z,13.00
2018-04-29T05:35:06.358Z,13.00
2018-04-29T05:37:32.429Z,13.10
2018-04-29T05:39:58.684Z,13.10
2018-04-29T05:42:25.495Z,13.30
2018-04-29T05:44:51.598Z,13.30
2018-04-29T05:47:17.640Z,13.50
2018-04-29T05:49:43.971Z,13.60
2018-04-29T05:52:10.061Z,13.70
2018-04-29T05:54:36.140Z,13.80
2018-04-29T05:57:02.952Z,14.00
2018-04-29T05:59:29.777Z,14.10
2018-04-29T06:01:55.851Z,14.10
2018-04-29T06:04:22.021Z,14.20
2018-04-29T06:06:48.166Z,14.30
2018-04-29T06:09:14.158Z,14.50
2018-04-29T06:11:40.233Z,14.60
2018-04-29T06:14:06.363Z,14.60
2018-04-29T06:16:34.007Z,14.40
2018-04-29T06:19:00.118Z,14.40
2018-04-29T06:21:26.172Z,14.30
2018-04-29T06:23:52.291Z,14.20
2018-04-29T06:26:18.484Z,14.20
2018-04-29T06:28:44.756Z,14.10
2018-04-29T06:31:11.997Z,14.10
2018-04-29T06:33:38.066Z,14.20
2018-04-29T06:36:04.195Z,14.20
2018-04-29T06:38:30.269Z,14.20
2018-04-29T06:40:56.361Z,14.20
2018-04-29T06:43:22.512Z,14.20
2018-04-29T06:45:48.569Z,14.10
2018-04-29T06:48:14.669Z,14.10
2018-04-29T06:50:41.477Z,14.00
2018-04-29T06:53:07.532Z,14.00
2018-04-29T06:55:33.620Z,14.00
2018-04-29T06:58:00.403Z,14.00
2018-04-29T07:00:26.484Z,14.00
2018-04-29T07:02:52.786Z,13.90
2018-04-29T07:05:18.842Z,13.90
2018-04-29T07:07:44.910Z,14.00
2018-04-29T07:10:11.816Z,14.00
2018-04-29T07:12:37.912Z,14.00
2018-04-29T07:15:10.853Z,14.10
2018-04-29T07:17:36.981Z,14.20
2018-04-29T07:20:03.199Z,14.40
2018-04-29T07:22:29.226Z,14.50
2018-04-29T07:24:56.017Z,14.80
2018-04-29T07:27:22.106Z,14.80
2018-04-29T07:29:48.926Z,14.80
2018-04-29T07:32:15.077Z,14.80
2018-04-29T07:34:41.181Z,14.80
2018-04-29T07:37:07.258Z,15.00
2018-04-29T07:39:33.554Z,15.20
2018-04-29T07:41:59.612Z,15.50
2018-04-29T07:44:25.681Z,15.60
2018-04-29T07:46:51.802Z,15.80
2018-04-29T07:49:17.847Z,16.10
2018-04-29T07:51:44.084Z,16.10
2018-04-29T07:54:10.215Z,16.20
2018-04-29T07:56:36.318Z,16.30
2018-04-29T07:59:03.148Z,16.30
2018-04-29T08:01:29.992Z,16.40
2018-04-29T08:03:56.028Z,16.40
2018-04-29T08:06:22.121Z,16.50
2018-04-29T08:08:48.174Z,16.50
2018-04-29T08:11:14.370Z,16.50
2018-04-29T08:13:41.157Z,16.60
2018-04-29T08:16:07.236Z,16.60
2018-04-29T08:18:33.314Z,16.80
2018-04-29T08:20:59.374Z,16.80
2018-04-29T08:23:25.455Z,16.90
2018-04-29T08:25:52.286Z,17.00
2018-04-29T08:28:18.455Z,17.00
2018-04-29T08:30:45.343Z,16.90
2018-04-29T08:33:11.438Z,16.90
2018-04-29T08:35:37.514Z,16.80
2018-04-29T08:38:04.579Z,16.70
2018-04-29T08:40:30.648Z,16.70
2018-04-29T08:42:56.694Z,16.80
2018-04-29T08:45:22.834Z,16.70
2018-04-29T08:47:48.896Z,16.70
2018-04-29T08:50:15.046Z,16.70
2018-04-29T08:52:41.898Z,17.00
2018-04-29T08:55:07.974Z,17.00
2018-04-29T08:57:34.064Z,17.20
2018-04-29T09:00:00.141Z,17.50
2018-04-29T09:02:26.250Z,17.60
2018-04-29T09:04:52.325Z,17.70
2018-04-29T09:07:18.412Z,17.90
2018-04-29T09:09:44.666Z,17.90
2018-04-29T09:12:11.543Z,17.80
2018-04-29T09:14:37.647Z,17.70
2018-04-29T09:17:03.760Z,17.90
2018-04-29T09:19:29.865Z,17.90
2018-04-29T09:21:55.914Z,18.00
2018-04-29T09:24:22.034Z,17.90
2018-04-29T09:26:48.092Z,17.90
2018-04-29T09:29:14.174Z,18.00
2018-04-29T09:31:40.241Z,18.00
2018-04-29T09:34:06.341Z,18.00
2018-04-29T09:36:32.390Z,18.10
2018-04-29T09:38:58.483Z,18.20
2018-04-29T09:41:24.624Z,18.40
2018-04-29T09:43:50.714Z,18.50
2018-04-29T09:46:17.503Z,18.60
2018-04-29T09:48:43.679Z,18.60
2018-04-29T09:51:09.678Z,18.60
2018-04-29T09:53:35.757Z,18.70
2018-04-29T09:56:01.892Z,18.80
2018-04-29T09:58:27.978Z,19.10
2018-04-29T10:00:57.331Z,19.20
2018-04-29T10:03:24.162Z,19.30
2018-04-29T10:05:50.276Z,19.30
2018-04-29T10:08:17.166Z,19.30
2018-04-29T10:10:43.201Z,19.30
2018-04-29T10:13:09.351Z,19.40
2018-04-29T10:15:35.579Z,19.50
2018-04-29T10:18:01.664Z,19.60
2018-04-29T10:20:27.776Z,19.90
2018-04-29T10:22:53.969Z,20.20
2018-04-29T10:25:20.808Z,21.10
2018-04-29T10:27:46.940Z,21.10
2018-04-29T10:30:14.017Z,21.60
2018-04-29T10:32:40.239Z,22.10
2018-04-29T10:35:06.215Z,22.10
2018-04-29T10:37:33.049Z,22.30
2018-04-29T10:39:59.118Z,22.30
2018-04-29T10:42:25.260Z,22.20
2018-04-29T10:44:51.586Z,21.80
2018-04-29T10:47:18.415Z,21.80
2018-04-29T10:49:44.469Z,21.70
2018-04-29T10:52:10.563Z,21.90
2018-04-29T10:54:36.632Z,22.00
2018-04-29T10:57:02.761Z,22.10
2018-04-29T10:59:28.855Z,22.40
2018-04-29T11:01:56.941Z,22.50
2018-04-29T11:04:23.043Z,22.50
2018-04-29T11:06:49.099Z,22.60
2018-04-29T11:09:15.230Z,22.60
2018-04-29T11:11:42.127Z,23.70
2018-04-29T11:14:08.343Z,23.60
2018-04-29T11:16:34.410Z,24.10
2018-04-29T11:19:00.495Z,24.50
2018-04-29T11:21:26.560Z,25.10
2018-04-29T11:23:52.642Z,24.80
2018-04-29T11:26:18.746Z,24.80
2018-04-29T11:28:44.791Z,25.10
2018-04-29T11:31:10.869Z,25.20
2018-04-29T11:33:36.938Z,25.60
2018-04-29T11:36:03.713Z,25.80
2018-04-29T11:38:29.881Z,25.80
2018-04-29T11:40:56.679Z,25.00
2018-04-29T11:43:23.564Z,24.30
2018-04-29T11:45:49.635Z,24.30
2018-04-29T11:48:15.695Z,24.20
2018-04-29T11:50:41.836Z,23.90
2018-04-29T11:53:07.951Z,23.60
2018-04-29T11:55:34.015Z,23.60
2018-04-29T11:58:00.106Z,23.60
2018-04-29T12:00:26.157Z,23.40
2018-04-29T12:02:52.290Z,23.10
2018-04-29T12:05:18.339Z,23.00
2018-04-29T12:07:44.412Z,22.80
2018-04-29T12:10:11.221Z,22.50
2018-04-29T12:12:37.300Z,22.50
2018-04-29T12:15:04.122Z,23.20
2018-04-29T12:17:30.268Z,23.20
2018-04-29T12:19:57.053Z,23.50
2018-04-29T12:22:23.163Z,23.50
2018-04-29T12:24:49.198Z,23.50
2018-04-29T12:27:15.379Z,23.30
2018-04-29T12:29:42.366Z,23.50
2018-04-29T12:32:08.459Z,23.50
2018-04-29T12:34:35.264Z,24.00
2018-04-29T12:37:01.477Z,23.90
2018-04-29T12:39:27.648Z,24.20
2018-04-29T12:41:53.758Z,24.90
2018-04-29T12:44:19.968Z,25.30
2018-04-29T12:46:46.926Z,26.90
2018-04-29T12:49:13.012Z,26.80
2018-04-29T12:51:39.454Z,27.20
2018-04-29T12:54:05.494Z,27.00
2018-04-29T12:56:31.586Z,26.30
2018-04-29T12:58:57.658Z,25.50
2018-04-29T13:01:23.780Z,24.80
2018-04-29T13:03:50.403Z,24.80
2018-04-29T13:06:17.513Z,25.00
2018-04-29T13:08:43.575Z,25.00
2018-04-29T13:11:10.441Z,24.60
2018-04-29T13:13:36.516Z,24.60
2018-04-29T13:16:02.693Z,24.30
2018-04-29T13:18:28.777Z,24.50
2018-04-29T13:20:55.075Z,24.40
2018-04-29T13:23:21.359Z,24.80
2018-04-29T13:25:47.901Z,25.30
2018-04-29T13:28:14.032Z,25.90
2018-04-29T13:33:13.652Z,25.10
2018-04-29T13:35:39.909Z,25.10
2018-04-29T13:38:05.996Z,24.90
2018-04-29T13:40:32.091Z,25.50
2018-04-29T13:42:58.346Z,26.90
2018-04-29T13:45:24.420Z,27.50
2018-04-29T13:47:50.494Z,27.70
2018-04-29T13:50:16.823Z,28.30
2018-04-29T13:52:42.871Z,28.30
2018-04-29T13:55:09.042Z,27.70
2018-04-29T13:57:35.243Z,27.90
2018-04-29T14:00:01.389Z,28.70
2018-04-29T14:02:27.522Z,28.40
2018-04-29T14:04:53.781Z,28.20
2018-04-29T14:07:19.957Z,27.50
2018-04-29T14:09:46.070Z,26.70
2018-04-29T14:12:12.271Z,26.30
2018-04-29T14:14:38.452Z,27.60
2018-04-29T14:17:04.515Z,28.90
2018-04-29T14:19:30.605Z,29.20
2018-04-29T14:21:56.656Z,29.20
2018-04-29T14:24:22.841Z,28.90
2018-04-29T14:26:49.006Z,28.10
2018-04-29T14:29:15.139Z,27.70
2018-04-29T14:31:52.232Z,27.00
2018-04-29T14:34:19.058Z,27.70
2018-04-29T14:36:45.131Z,27.60
2018-04-29T14:39:11.389Z,27.60
2018-04-29T14:41:37.540Z,27.40
2018-04-29T14:44:03.905Z,27.60
2018-04-29T14:46:30.031Z,27.60
2018-04-29T14:48:56.175Z,28.30
2018-04-29T14:51:22.319Z,28.80
2018-04-29T14:53:48.433Z,28.90
2018-04-29T14:56:14.500Z,29.10
2018-04-29T14:58:40.673Z,28.40
2018-04-29T15:01:06.786Z,26.90
2018-04-29T15:03:32.941Z,26.30
2018-04-29T15:05:59.625Z,27.00
2018-04-29T15:08:25.908Z,28.50
2018-04-29T15:10:52.047Z,29.90
2018-04-29T15:13:18.131Z,30.60
2018-04-29T15:15:44.923Z,32.30
2018-04-29T15:18:23.301Z,32.20
2018-04-29T15:20:56.432Z,31.10
2018-04-29T15:23:23.335Z,30.00
2018-04-29T15:25:49.400Z,29.90
2018-04-29T15:28:15.499Z,29.50
2018-04-29T15:30:41.610Z,29.00
2018-04-29T15:33:07.726Z,28.40
2018-04-29T15:35:36.288Z,28.90
2018-04-29T15:38:02.563Z,29.60
2018-04-29T15:40:29.391Z,29.80
2018-04-29T15:42:55.467Z,29.80
2018-04-29T15:45:22.361Z,31.10
2018-04-29T15:47:48.442Z,31.00
2018-04-29T15:50:14.740Z,31.90
2018-04-29T15:52:40.916Z,32.30
2018-04-29T15:55:07.082Z,31.80
2018-04-29T15:57:33.077Z,30.30
2018-04-29T15:59:59.210Z,30.40
2018-04-29T16:02:25.330Z,30.40
2018-04-29T16:04:51.446Z,29.50
2018-04-29T16:07:17.532Z,28.90
2018-04-29T16:09:43.596Z,28.20
2018-04-29T16:12:09.648Z,27.60
2018-04-29T16:14:36.502Z,27.40
2018-04-29T16:17:03.344Z,27.50
2018-04-29T16:19:29.417Z,27.50
2018-04-29T16:21:55.546Z,27.40
2018-04-29T16:24:21.697Z,27.90
2018-04-29T16:26:47.762Z,28.30
2018-04-29T16:29:14.097Z,28.10
2018-04-29T16:31:40.210Z,27.80
2018-04-29T16:34:07.156Z,27.30
2018-04-29T16:36:33.289Z,27.70
2018-04-29T16:38:59.372Z,28.50
2018-04-29T16:41:25.454Z,28.90
2018-04-29T16:43:52.343Z,29.30
2018-04-29T16:46:18.499Z,29.20
2018-04-29T16:48:44.600Z,29.30
2018-04-29T16:51:11.429Z,27.40
2018-04-29T16:53:37.539Z,27.40
2018-04-29T16:56:03.637Z,26.30
2018-04-29T16:58:30.455Z,24.60
2018-04-29T17:00:56.539Z,24.50
2018-04-29T17:03:22.720Z,24.00
2018-04-29T17:05:48.786Z,24.10
2018-04-29T17:08:14.955Z,24.40
2018-04-29T17:10:41.101Z,24.30
2018-04-29T17:13:07.163Z,23.60
2018-04-29T17:15:33.346Z,23.10
2018-04-29T17:17:59.441Z,22.80
2018-04-29T17:20:25.562Z,22.30
2018-04-29T17:22:51.686Z,21.90
2018-04-29T17:25:17.860Z,21.30
2018-04-29T17:27:44.086Z,20.90
2018-04-29T17:30:10.209Z,20.60
2018-04-29T17:32:36.238Z,20.30
2018-04-29T17:35:02.362Z,19.60
2018-04-29T17:37:28.442Z,19.00
2018-04-29T17:39:54.510Z,18.70
2018-04-29T17:42:20.714Z,18.40
2018-04-29T17:44:46.838Z,18.20
2018-04-29T17:47:12.894Z,18.00
2018-04-29T17:49:38.950Z,17.90
2018-04-29T17:52:05.171Z,17.60
2018-04-29T17:54:31.249Z,17.40
2018-04-29T17:56:57.321Z,17.20
2018-04-29T17:59:24.229Z,16.70
2018-04-29T18:01:50.321Z,16.70
2018-04-29T18:04:16.370Z,16.60
2018-04-29T18:06:43.198Z,16.50
2018-04-29T18:09:10.036Z,16.20
2018-04-29T18:11:36.138Z,16.20
2018-04-29T18:14:02.256Z,16.10
2018-04-29T18:16:28.336Z,16.00
2018-04-29T18:18:54.474Z,15.90
2018-04-29T18:21:21.637Z,15.80
2018-04-29T18:23:47.721Z,15.80
2018-04-29T18:26:14.671Z,15.60
2018-04-29T18:28:40.733Z,15.50
2018-04-29T18:31:07.152Z,15.40
2018-04-29T18:33:33.339Z,15.40
2018-04-29T18:35:59.454Z,15.30
2018-04-29T18:38:25.577Z,15.20
2018-04-29T18:40:52.405Z,15.00
2018-04-29T18:43:18.687Z,15.00
2018-04-29T18:45:44.780Z,14.90
2018-04-29T18:48:10.855Z,14.90
2018-04-29T18:50:37.782Z,14.70
2018-04-29T18:53:04.295Z,14.70
2018-04-29T18:55:30.326Z,14.70
2018-04-29T18:57:56.423Z,14.60
2018-04-29T19:00:22.568Z,14.50
2018-04-29T19:02:49.400Z,14.50
2018-04-29T19:05:15.733Z,14.40
2018-04-29T19:07:41.848Z,14.50
2018-04-29T19:10:07.950Z,14.50
2018-04-29T19:12:34.304Z,14.50
2018-04-29T19:15:00.368Z,14.50
2018-04-29T19:17:26.463Z,14.50
2018-04-29T19:19:52.825Z,14.50
2018-04-29T19:22:18.881Z,14.50
2018-04-29T19:24:44.934Z,14.40
2018-04-29T19:27:11.356Z,14.30
2018-04-29T19:29:37.453Z,14.20
2018-04-29T19:32:03.569Z,14.20
2018-04-29T19:34:29.690Z,14.10
2018-04-29T19:36:55.870Z,14.00
2018-04-29T19:39:21.967Z,13.90
2018-04-29T19:41:48.125Z,13.90
2018-04-29T19:44:14.202Z,13.80
2018-04-29T19:46:42.311Z,13.80
2018-04-29T19:49:08.407Z,13.80
2018-04-29T19:51:34.458Z,13.80
2018-04-29T19:54:00.518Z,13.80
2018-04-29T19:56:27.522Z,13.70
2018-04-29T19:58:53.681Z,13.60
2018-04-29T20:01:19.790Z,13.60
2018-04-29T20:03:45.920Z,13.60
2018-04-29T20:06:12.304Z,13.50
2018-04-29T20:08:38.529Z,13.50
2018-04-29T20:11:05.093Z,13.50
2018-04-29T20:13:31.922Z,13.40
2018-04-29T20:15:58.019Z,13.40
2018-04-29T20:18:25.028Z,13.40
2018-04-29T20:20:52.261Z,13.40
2018-04-29T20:23:18.388Z,13.40
2018-04-29T20:25:45.948Z,13.40
2018-04-29T20:28:12.072Z,13.30
2018-04-29T20:30:38.196Z,13.40
2018-04-29T20:33:04.708Z,13.30
2018-04-29T20:35:30.774Z,13.30
2018-04-29T20:37:56.941Z,13.30
2018-04-29T20:40:23.558Z,13.20
2018-04-29T20:42:49.657Z,13.20
2018-04-29T20:45:15.751Z,13.10
2018-04-29T20:47:41.835Z,13.10
2018-04-29T20:50:08.694Z,13.10
2018-04-29T20:52:35.226Z,13.10
2018-04-29T20:55:01.357Z,13.10
2018-04-29T20:57:27.718Z,13.00
2018-04-29T20:59:54.187Z,13.00
2018-04-29T21:02:20.243Z,13.00
2018-04-29T21:04:46.392Z,13.00
2018-04-29T21:07:12.435Z,12.90
2018-04-29T21:09:39.270Z,12.80
2018-04-29T21:12:05.350Z,12.80
2018-04-29T21:14:31.396Z,12.80
2018-04-29T21:16:58.509Z,12.70
2018-04-29T21:19:24.640Z,12.70
2018-04-29T21:21:51.514Z,12.60
2018-04-29T21:24:17.898Z,12.60
2018-04-29T21:26:43.995Z,12.60
2018-04-29T21:29:10.163Z,12.50
2018-04-29T21:31:36.392Z,12.50
2018-04-29T21:34:02.470Z,12.50
2018-04-29T21:36:29.306Z,12.40
2018-04-29T21:38:55.397Z,12.40
2018-04-29T21:41:21.500Z,12.40
2018-04-29T21:43:48.356Z,12.30
2018-04-29T21:46:15.210Z,12.30
2018-04-29T21:48:41.294Z,12.30
2018-04-29T21:51:07.365Z,12.40
2018-04-29T21:53:33.629Z,12.30
2018-04-29T21:56:00.515Z,12.30
2018-04-29T21:58:26.723Z,12.20
2018-04-29T22:00:53.577Z,12.30
2018-04-29T22:03:20.388Z,12.30
2018-04-29T22:05:46.489Z,12.30
2018-04-29T22:08:12.561Z,12.30
2018-04-29T22:10:38.773Z,12.30
2018-04-29T22:13:04.814Z,12.40
2018-04-29T22:15:30.917Z,12.40
2018-04-29T22:17:57.004Z,12.40
2018-04-29T22:20:23.113Z,12.40
2018-04-29T22:22:49.246Z,12.40
2018-04-29T22:25:15.421Z,12.40
2018-04-29T22:27:41.600Z,12.40
2018-04-29T22:30:08.563Z,12.40
2018-04-29T22:32:35.450Z,12.40
2018-04-29T22:35:01.845Z,12.40
2018-04-29T22:37:27.890Z,12.40
2018-04-29T22:39:53.940Z,12.40
2018-04-29T22:42:20.106Z,12.40
2018-04-29T22:44:46.883Z,12.40
2018-04-29T22:47:12.908Z,12.40
2018-04-29T22:49:38.997Z,12.40
2018-04-29T22:52:05.066Z,12.40
2018-04-29T22:54:31.899Z,12.40
2018-04-29T22:56:58.170Z,12.40
2018-04-29T22:59:24.635Z,12.40
2018-04-29T23:01:50.813Z,12.30
2018-04-29T23:04:17.029Z,12.30
2018-04-29T23:06:43.120Z,12.30
2018-04-29T23:09:09.208Z,12.30
2018-04-29T23:11:35.325Z,12.30
2018-04-29T23:14:01.501Z,12.30
2018-04-29T23:16:27.602Z,12.30
2018-04-29T23:18:53.681Z,12.30
2018-04-29T23:21:19.758Z,12.30
2018-04-29T23:23:45.799Z,12.30
2018-04-29T23:26:11.834Z,12.30
2018-04-29T23:28:38.730Z,12.30
2018-04-29T23:31:04.794Z,12.30
2018-04-29T23:33:30.835Z,12.30
2018-04-29T23:35:56.928Z,12.30
2018-04-29T23:38:23.155Z,12.30
2018-04-29T23:40:49.251Z,12.30
2018-04-29T23:43:15.350Z,12.30
2018-04-29T23:45:41.408Z,12.30
2018-04-29T23:48:07.521Z,12.30
2018-04-29T23:50:33.836Z,12.30
2018-04-29T23:53:00.626Z,12.30
2018-04-29T23:55:26.684Z,12.30
2018-04-29T23:57:52.852Z,12.30
